Time;durP1;ratioP1;P1;durP2;ratioP2;P2;SDS_P1;SDS_P2;PMS_P1;PMS_P2;Temp;Humidity;BMP_temperature;BMP_pressure;BME280_temperature;BME280_humidity;BME280_pressure;Samples;Min_cycle;Max_cycle;Signal;HPM_P1;HPM_P2
2023/05/23 00:01:38;;;;;;;32.73;26.33;;;19.30;99.90;;;;;;4995620;28;20368;-73
2023/05/23 00:04:04;;;;;;;37.77;29.63;;;19.30;99.90;;;;;;4995592;28;20175;-73
2023/05/23 00:06:30;;;;;;;33.00;27.33;;;19.30;99.90;;;;;;4995879;28;20176;-72
2023/05/23 00:08:56;;;;;;;39.83;31.83;;;19.30;99.90;;;;;;4995439;28;20176;-72
2023/05/23 00:11:25;;;;;;;36.37;29.57;;;19.20;99.90;;;;;;4995682;28;20576;-72
2023/05/23 00:13:52;;;;;;;42.10;32.80;;;19.20;99.90;;;;;;4977623;28;20435;-72
2023/05/23 00:16:17;;;;;;;42.90;33.90;;;19.30;99.90;;;;;;4995669;28;20495;-72
2023/05/23 00:18:44;;;;;;;40.30;33.63;;;19.40;99.90;;;;;;4995411;28;20542;-73
2023/05/23 00:21:10;;;;;;;45.53;38.40;;;19.40;99.90;;;;;;4995275;28;20173;-73
2023/05/23 00:23:37;;;;;;;45.70;35.47;;;19.20;99.90;;;;;;4995240;28;20887;-73
2023/05/23 00:26:02;;;;;;;47.80;38.63;;;19.20;99.90;;;;;;4995234;28;20411;-73
2023/05/23 00:28:28;;;;;;;44.53;34.60;;;19.30;99.90;;;;;;4994621;28;20408;-73
2023/05/23 00:30:53;;;;;;;46.60;37.77;;;19.40;99.90;;;;;;4995071;28;20299;-73
2023/05/23 00:33:20;;;;;;;41.03;33.27;;;19.40;99.90;;;;;;4994912;28;20232;-73
2023/05/23 00:35:47;;;;;;;41.50;34.33;;;19.60;99.90;;;;;;4995180;28;20172;-72
2023/05/23 00:38:13;;;;;;;45.43;35.23;;;19.60;99.90;;;;;;4995141;28;20798;-73
2023/05/23 00:40:39;;;;;;;48.30;35.50;;;19.60;99.90;;;;;;4994793;28;20407;-73
2023/05/23 00:43:05;;;;;;;43.50;36.30;;;19.60;99.90;;;;;;4995013;28;20193;-73
2023/05/23 00:45:30;;;;;;;43.07;32.73;;;19.70;99.90;;;;;;4977928;28;20412;-73
2023/05/23 00:47:58;;;;;;;44.20;36.53;;;19.60;99.90;;;;;;4975467;28;20204;-72
2023/05/23 00:50:24;;;;;;;47.67;38.43;;;19.60;99.90;;;;;;4975334;28;20165;-73
2023/05/23 00:52:50;;;;;;;49.43;38.97;;;19.70;99.90;;;;;;4957851;28;20531;-72
2023/05/23 00:55:16;;;;;;;50.43;39.97;;;19.50;99.90;;;;;;4975142;28;20467;-73
2023/05/23 00:57:43;;;;;;;53.17;38.47;;;19.60;99.90;;;;;;4975224;28;20258;-73
2023/05/23 01:00:11;;;;;;;53.40;40.97;;;19.70;99.90;;;;;;4989075;28;20189;-73
2023/05/23 01:02:43;;;;;;;49.63;40.73;;;19.80;99.90;;;;;;4993909;28;20580;-73
2023/05/23 01:05:13;;;;;;;49.70;39.80;;;19.60;99.90;;;;;;4975466;28;20476;-73
2023/05/23 01:07:39;;;;;;;55.97;44.50;;;19.40;99.90;;;;;;4957559;28;20444;-72
2023/05/23 01:10:05;;;;;;;52.57;41.70;;;19.50;99.90;;;;;;4975002;28;20464;-73
2023/05/23 01:12:54;;;;;;;51.80;38.07;;;19.40;99.90;;;;;;4975154;28;20439;-73
2023/05/23 01:15:22;;;;;;;59.23;42.83;;;19.60;99.90;;;;;;4962387;28;20412;-73
2023/05/23 01:18:20;;;;;;;55.87;41.40;;;19.70;99.90;;;;;;4975029;28;20448;-73
2023/05/23 01:21:00;;;;;;;52.40;42.17;;;19.60;99.90;;;;;;4975196;28;20393;-74
2023/05/23 01:24:02;;;;;;;57.20;42.13;;;19.40;99.90;;;;;;4974936;28;20419;-73
2023/05/23 01:26:39;;;;;;;59.50;43.60;;;19.40;99.90;;;;;;4975213;28;20467;-73
2023/05/23 01:29:13;;;;;;;57.40;43.93;;;19.60;99.90;;;;;;4980386;28;20497;-73
2023/05/23 01:31:44;;;;;;;58.23;44.17;;;19.40;99.90;;;;;;4994771;28;20506;-73
2023/05/23 01:34:12;;;;;;;63.87;45.93;;;19.30;99.90;;;;;;4994978;28;20407;-73
2023/05/23 01:36:42;;;;;;;62.70;44.73;;;19.50;99.90;;;;;;4979521;28;20448;-73
2023/05/23 01:39:09;;;;;;;59.47;45.23;;;19.50;99.90;;;;;;4957135;28;20503;-73
2023/05/23 01:41:34;;;;;;;60.83;45.40;;;19.40;99.90;;;;;;4975229;28;20423;-73
2023/05/23 01:44:00;;;;;;;60.57;47.70;;;19.40;99.90;;;;;;4975148;28;20778;-73
2023/05/23 01:46:27;;;;;;;59.07;45.00;;;19.60;99.90;;;;;;4975314;28;20180;-73
2023/05/23 01:48:55;;;;;;;65.33;48.07;;;19.50;99.90;;;;;;4975066;28;20409;-73
2023/05/23 01:51:22;;;;;;;57.03;44.90;;;19.40;99.90;;;;;;4975448;28;20413;-73
2023/05/23 01:53:51;;;;;;;65.30;50.70;;;19.50;99.90;;;;;;4976020;28;20926;-73
2023/05/23 01:56:18;;;;;;;69.07;46.60;;;19.50;99.90;;;;;;4975733;28;20420;-73
2023/05/23 01:58:44;;;;;;;63.50;48.03;;;19.30;99.90;;;;;;4978988;28;20471;-73
2023/05/23 02:01:10;;;;;;;71.40;51.60;;;19.30;99.90;;;;;;4994069;28;20439;-73
2023/05/23 02:03:35;;;;;;;66.27;50.70;;;19.40;99.90;;;;;;4979576;28;20238;-73
2023/05/23 02:06:01;;;;;;;71.90;50.00;;;19.40;99.90;;;;;;5007212;28;20260;-72
2023/05/23 02:08:26;;;;;;;59.60;49.03;;;19.50;99.90;;;;;;5008082;28;20199;-72
2023/05/23 02:10:52;;;;;;;66.53;52.00;;;19.50;99.90;;;;;;5007086;28;20196;-73
2023/05/23 02:13:18;;;;;;;59.00;47.73;;;19.40;99.90;;;;;;5006840;28;20220;-73
2023/05/23 02:15:43;;;;;;;65.03;51.37;;;19.60;99.90;;;;;;5007942;28;20169;-73
2023/05/23 02:18:09;;;;;;;74.80;50.60;;;19.60;99.90;;;;;;5008255;28;20578;-73
2023/05/23 02:20:34;;;;;;;65.40;50.27;;;19.60;99.90;;;;;;5008232;28;20181;-73
2023/05/23 02:23:00;;;;;;;75.40;55.10;;;19.80;99.90;;;;;;5009610;28;20200;-73
2023/05/23 02:25:25;;;;;;;72.53;52.57;;;19.60;99.90;;;;;;5008851;28;20176;-73
2023/05/23 02:27:51;;;;;;;67.97;51.60;;;19.30;99.90;;;;;;5007908;28;20200;-72
2023/05/23 02:30:16;;;;;;;68.57;51.03;;;19.10;99.90;;;;;;5002356;28;20172;-73
2023/05/23 02:32:42;;;;;;;75.70;54.27;;;19.20;99.90;;;;;;4993295;28;20671;-73
2023/05/23 02:35:09;;;;;;;64.13;51.47;;;19.10;99.90;;;;;;4993204;28;20526;-73
2023/05/23 02:37:34;;;;;;;68.70;51.10;;;19.10;99.90;;;;;;4992967;28;20184;-72
2023/05/23 02:40:00;;;;;;;71.30;55.53;;;19.30;99.90;;;;;;4993172;28;20408;-73
2023/05/23 02:42:26;;;;;;;64.70;49.97;;;19.30;99.90;;;;;;4993087;28;20189;-73
2023/05/23 02:44:51;;;;;;;82.63;55.70;;;19.20;99.90;;;;;;4992490;28;20169;-73
2023/05/23 02:47:17;;;;;;;69.57;55.80;;;19.10;99.90;;;;;;4982079;28;20181;-73
2023/05/23 02:49:42;;;;;;;68.77;54.50;;;19.10;99.90;;;;;;4973996;28;20169;-73
2023/05/23 02:52:08;;;;;;;73.20;55.50;;;19.10;99.90;;;;;;4973388;28;20573;-73
2023/05/23 02:54:33;;;;;;;71.77;54.67;;;19.10;99.90;;;;;;4973612;28;20613;-73
2023/05/23 02:57:00;;;;;;;68.17;51.60;;;19.10;99.90;;;;;;4973544;28;20647;-73
2023/05/23 02:59:26;;;;;;;70.60;56.70;;;19.10;99.90;;;;;;4972715;28;20594;-73
2023/05/23 03:01:51;;;;;;;73.70;54.80;;;18.90;99.90;;;;;;4991603;28;20455;-73
2023/05/23 03:04:17;;;;;;;69.50;52.13;;;18.70;99.90;;;;;;4975086;28;20204;-73
2023/05/23 03:06:43;;;;;;;64.20;50.93;;;18.90;99.90;;;;;;4992504;28;20518;-72
2023/05/23 03:09:09;;;;;;;68.53;51.80;;;19.00;99.90;;;;;;4995042;28;20176;-73
2023/05/23 03:11:35;;;;;;;71.20;53.60;;;19.20;99.90;;;;;;4996743;28;20462;-74
2023/05/23 03:14:01;;;;;;;68.43;52.70;;;19.20;99.90;;;;;;4994576;28;20184;-72
2023/05/23 03:16:27;;;;;;;61.17;47.70;;;19.30;99.90;;;;;;4996902;28;20507;-74
2023/05/23 03:18:52;;;;;;;62.83;52.43;;;19.40;99.90;;;;;;4996307;28;20442;-72
2023/05/23 03:21:18;;;;;;;63.77;49.93;;;19.30;99.90;;;;;;4978771;28;20190;-72
2023/05/23 03:23:44;;;;;;;55.20;46.50;;;19.20;99.90;;;;;;4996360;28;20188;-73
2023/05/23 03:26:09;;;;;;;63.97;53.10;;;19.20;99.90;;;;;;4996581;28;20468;-73
2023/05/23 03:28:35;;;;;;;63.53;51.67;;;19.30;99.90;;;;;;4996459;28;20173;-72
2023/05/23 03:31:00;;;;;;;55.30;48.50;;;19.30;99.90;;;;;;4995630;28;20187;-72
2023/05/23 03:33:26;;;;;;;60.83;51.47;;;19.30;99.90;;;;;;4995922;28;20203;-72
2023/05/23 03:35:51;;;;;;;61.60;50.10;;;19.10;99.90;;;;;;4996274;28;20243;-72
2023/05/23 03:38:17;;;;;;;63.07;51.40;;;19.00;99.90;;;;;;4995862;28;20203;-72
2023/05/23 03:40:43;;;;;;;61.63;49.70;;;18.80;99.90;;;;;;4995800;28;20569;-73
2023/05/23 03:43:08;;;;;;;63.73;50.40;;;18.70;99.90;;;;;;4996013;28;20194;-72
2023/05/23 03:45:34;;;;;;;63.93;48.73;;;18.60;99.90;;;;;;4995598;28;20204;-74
2023/05/23 03:48:00;;;;;;;64.07;52.13;;;18.60;99.90;;;;;;4978561;28;20169;-73
2023/05/23 03:50:26;;;;;;;58.13;49.03;;;18.70;99.90;;;;;;4996070;28;20635;-72
2023/05/23 03:52:52;;;;;;;59.57;47.17;;;18.70;99.90;;;;;;4996899;28;20222;-73
2023/05/23 03:55:21;;;;;;;56.97;49.10;;;18.70;99.90;;;;;;4995790;28;20407;-73
2023/05/23 03:57:47;;;;;;;61.47;47.33;;;18.70;99.90;;;;;;4995710;28;20439;-72
2023/05/23 04:00:14;;;;;;;63.77;50.67;;;18.70;99.90;;;;;;4994373;28;20898;-72
2023/05/23 04:02:39;;;;;;;56.23;46.57;;;18.60;99.90;;;;;;4995294;28;20503;-72
2023/05/23 04:05:05;;;;;;;55.43;46.80;;;18.60;99.90;;;;;;4995858;28;20440;-73
2023/05/23 04:07:35;;;;;;;57.57;46.73;;;18.60;99.90;;;;;;4995574;28;20259;-72
2023/05/23 04:10:01;;;;;;;50.73;42.53;;;18.60;99.90;;;;;;4995470;28;20466;-73
2023/05/23 04:12:30;;;;;;;52.10;44.60;;;18.70;99.90;;;;;;4995336;28;20439;-73
2023/05/23 04:14:56;;;;;;;53.37;44.50;;;18.70;99.90;;;;;;4995274;28;20408;-73
2023/05/23 04:17:22;;;;;;;55.20;46.90;;;18.60;99.90;;;;;;4994994;28;20912;-73
2023/05/23 04:19:51;;;;;;;47.70;39.97;;;18.70;99.90;;;;;;4994853;28;20431;-73
2023/05/23 04:22:17;;;;;;;56.70;46.77;;;18.90;99.90;;;;;;4995324;28;20803;-73
2023/05/23 04:24:43;;;;;;;51.33;43.40;;;18.90;99.90;;;;;;4994761;28;20410;-73
2023/05/23 04:27:08;;;;;;;54.83;47.23;;;18.90;99.90;;;;;;4995277;28;20416;-73
2023/05/23 04:29:34;;;;;;;51.47;44.90;;;18.70;99.90;;;;;;4982926;28;20460;-73
2023/05/23 04:32:00;;;;;;;49.67;43.50;;;18.70;99.90;;;;;;5011688;23;20263;-73
2023/05/23 04:34:26;;;;;;;51.67;44.67;;;18.60;99.90;;;;;;4978463;28;20842;-73
2023/05/23 04:36:53;;;;;;;48.60;42.20;;;18.70;99.90;;;;;;4978464;28;20403;-75
2023/05/23 04:39:19;;;;;;;53.47;43.90;;;18.70;99.90;;;;;;4991283;28;20197;-73
2023/05/23 04:41:45;;;;;;;48.13;42.93;;;18.70;99.90;;;;;;4974973;28;20919;-73
2023/05/23 04:44:11;;;;;;;49.00;42.87;;;18.80;99.90;;;;;;4957190;29;20231;-73
2023/05/23 04:46:40;;;;;;;49.13;43.80;;;18.80;99.90;;;;;;4971790;28;20169;-75
2023/05/23 04:49:07;;;;;;;52.93;45.37;;;18.80;99.90;;;;;;4976126;28;20780;-75
2023/05/23 04:51:32;;;;;;;52.00;42.00;;;18.70;99.90;;;;;;4971408;28;20414;-76
2023/05/23 04:53:58;;;;;;;50.77;43.80;;;18.70;99.90;;;;;;4975308;28;20909;-76
2023/05/23 04:56:26;;;;;;;51.43;42.40;;;18.90;99.90;;;;;;4957040;28;20181;-76
2023/05/23 04:58:52;;;;;;;48.03;42.87;;;19.00;99.90;;;;;;4939625;29;20260;-75
2023/05/23 05:01:18;;;;;;;48.87;42.77;;;19.00;99.90;;;;;;4964766;28;20517;-75
2023/05/23 05:03:44;;;;;;;48.77;42.10;;;19.00;99.90;;;;;;4958506;28;20196;-76
2023/05/23 05:06:09;;;;;;;45.90;40.97;;;19.10;99.90;;;;;;4976116;28;20173;-75
2023/05/23 05:08:35;;;;;;;52.03;44.93;;;19.10;99.90;;;;;;4975914;28;20166;-76
2023/05/23 05:11:01;;;;;;;47.53;40.73;;;18.90;99.90;;;;;;4975726;28;20161;-75
2023/05/23 05:13:27;;;;;;;50.40;44.90;;;19.10;99.90;;;;;;4975694;28;20938;-75
2023/05/23 05:15:52;;;;;;;45.87;40.90;;;19.40;99.90;;;;;;4958017;28;20264;-75
2023/05/23 05:18:18;;;;;;;49.47;44.10;;;19.30;99.90;;;;;;4958506;28;20201;-75
2023/05/23 05:20:43;;;;;;;46.03;41.03;;;19.40;99.90;;;;;;4976062;28;20242;-75
2023/05/23 05:23:10;;;;;;;48.77;42.40;;;19.40;99.90;;;;;;4975858;28;20197;-75
2023/05/23 05:25:37;;;;;;;50.60;44.93;;;19.10;99.90;;;;;;4975571;28;20166;-74
2023/05/23 05:28:04;;;;;;;49.17;43.80;;;18.90;99.90;;;;;;4958155;28;20433;-75
2023/05/23 05:30:34;;;;;;;50.70;42.83;;;19.00;99.90;;;;;;4974340;28;20404;-75
2023/05/23 05:33:03;;;;;;;47.53;42.37;;;19.00;99.90;;;;;;4974861;28;20452;-74
2023/05/23 05:35:33;;;;;;;47.53;42.40;;;19.00;99.90;;;;;;4975516;28;20417;-75
2023/05/23 05:37:59;;;;;;;45.47;40.53;;;19.10;99.90;;;;;;4975346;28;20606;-75
2023/05/23 05:40:24;;;;;;;46.77;41.77;;;19.10;99.90;;;;;;4975461;28;20405;-75
2023/05/23 05:42:50;;;;;;;50.17;44.77;;;19.00;99.90;;;;;;4975370;28;20487;-75
2023/05/23 05:45:16;;;;;;;43.93;38.17;;;18.80;99.90;;;;;;4957081;28;20269;-74
2023/05/23 05:47:42;;;;;;;43.97;39.27;;;18.80;99.90;;;;;;4975225;28;20196;-74
2023/05/23 05:50:09;;;;;;;46.67;40.00;;;19.00;99.90;;;;;;4974915;28;20408;-74
2023/05/23 05:52:37;;;;;;;50.30;42.80;;;19.00;99.90;;;;;;4957615;28;20575;-74
2023/05/23 05:55:07;;;;;;;45.53;40.83;;;19.00;99.90;;;;;;4975001;28;20463;-75
2023/05/23 05:57:33;;;;;;;46.10;41.20;;;18.90;99.90;;;;;;4974782;28;20537;-74
2023/05/23 05:59:59;;;;;;;45.93;41.13;;;18.80;99.90;;;;;;4974685;28;20460;-74
2023/05/23 06:02:25;;;;;;;49.97;43.97;;;18.90;99.90;;;;;;4953017;28;20228;-75
2023/05/23 06:04:51;;;;;;;48.43;42.93;;;18.90;99.90;;;;;;4955453;29;20233;-75
2023/05/23 06:07:16;;;;;;;51.40;42.97;;;19.00;99.90;;;;;;4955548;29;20406;-75
2023/05/23 06:09:42;;;;;;;48.47;43.23;;;19.00;99.90;;;;;;4955653;29;20166;-74
2023/05/23 06:12:08;;;;;;;52.07;46.40;;;18.90;99.90;;;;;;4955473;28;20196;-74
2023/05/23 06:14:33;;;;;;;48.03;42.83;;;18.80;99.90;;;;;;4955159;29;20185;-74
2023/05/23 06:16:59;;;;;;;45.30;40.80;;;18.70;99.90;;;;;;4955121;29;20245;-73
2023/05/23 06:19:24;;;;;;;48.00;42.90;;;18.80;99.90;;;;;;4955239;29;20262;-74
2023/05/23 06:21:50;;;;;;;50.03;44.67;;;19.00;99.90;;;;;;4955338;28;20570;-74
2023/05/23 06:24:15;;;;;;;47.53;42.70;;;19.20;99.90;;;;;;4955139;28;20174;-76
2023/05/23 06:26:41;;;;;;;51.03;45.43;;;19.20;99.90;;;;;;4956423;28;20209;-72
2023/05/23 06:29:07;;;;;;;50.47;45.17;;;19.10;99.90;;;;;;4974746;28;20166;-74
2023/05/23 06:31:33;;;;;;;47.50;42.70;;;19.20;99.90;;;;;;4974286;28;20263;-75
2023/05/23 06:33:58;;;;;;;46.87;42.07;;;19.20;99.90;;;;;;4955777;28;20500;-75
2023/05/23 06:36:24;;;;;;;52.43;46.30;;;19.20;99.90;;;;;;4974175;28;20166;-75
2023/05/23 06:38:49;;;;;;;49.73;44.37;;;19.30;99.90;;;;;;4974094;28;20244;-75
2023/05/23 06:41:15;;;;;;;46.93;41.97;;;19.40;99.90;;;;;;4974499;28;20276;-74
2023/05/23 06:43:40;;;;;;;47.57;42.73;;;19.20;99.90;;;;;;4974145;28;20197;-75
2023/05/23 06:46:06;;;;;;;50.53;45.17;;;19.10;99.90;;;;;;4974206;28;20165;-75
2023/05/23 06:48:32;;;;;;;51.23;44.40;;;19.10;99.90;;;;;;4971946;28;20257;-75
2023/05/23 06:50:57;;;;;;;52.13;46.83;;;19.20;99.90;;;;;;4974126;28;20209;-75
2023/05/23 06:53:23;;;;;;;49.97;44.90;;;19.00;99.90;;;;;;4953029;28;20193;-76
2023/05/23 06:55:48;;;;;;;50.20;45.10;;;18.90;99.90;;;;;;4972735;28;20173;-72
2023/05/23 06:58:14;;;;;;;50.30;45.00;;;18.80;99.90;;;;;;4974430;28;20275;-75
2023/05/23 07:00:39;;;;;;;47.57;42.50;;;18.80;99.90;;;;;;4974888;28;20176;-75
2023/05/23 07:03:06;;;;;;;48.80;43.60;;;18.80;99.90;;;;;;4975200;28;20682;-75
2023/05/23 07:05:33;;;;;;;46.77;41.80;;;18.70;99.90;;;;;;4975392;28;20270;-75
2023/05/23 07:07:58;;;;;;;47.00;42.20;;;18.50;99.90;;;;;;4956756;28;20428;-75
2023/05/23 07:10:25;;;;;;;49.47;44.37;;;18.50;99.90;;;;;;4974548;28;20477;-75
2023/05/23 07:12:50;;;;;;;48.10;43.10;;;18.50;99.90;;;;;;4974170;28;20227;-74
2023/05/23 07:15:16;;;;;;;47.70;42.60;;;18.30;99.90;;;;;;4973932;28;20903;-74
2023/05/23 07:17:42;;;;;;;48.83;41.17;;;18.20;99.90;;;;;;4973969;28;20538;-74
2023/05/23 07:20:08;;;;;;;44.33;39.83;;;18.30;99.90;;;;;;4974628;28;20412;-75
2023/05/23 07:22:33;;;;;;;45.83;41.10;;;18.30;99.90;;;;;;4974341;28;20421;-74
2023/05/23 07:24:59;;;;;;;42.90;38.27;;;18.40;99.90;;;;;;4974647;28;20702;-75
2023/05/23 07:27:26;;;;;;;44.53;40.17;;;18.30;99.90;;;;;;4974829;28;20527;-75
2023/05/23 07:29:52;;;;;;;39.50;35.47;;;18.50;99.90;;;;;;4978075;28;20240;-74
2023/05/23 07:32:17;;;;;;;36.67;32.90;;;18.50;99.90;;;;;;4976596;28;20496;-75
2023/05/23 07:34:43;;;;;;;36.20;32.50;;;18.20;99.90;;;;;;4976687;28;20161;-74
2023/05/23 07:37:08;;;;;;;36.17;32.43;;;18.20;99.90;;;;;;4978661;28;20170;-74
2023/05/23 07:39:34;;;;;;;36.23;31.87;;;18.10;99.90;;;;;;4978344;28;20280;-74
2023/05/23 07:42:00;;;;;;;33.57;30.17;;;18.00;99.90;;;;;;4974949;28;20166;-74
2023/05/23 07:44:25;;;;;;;35.80;32.17;;;18.20;99.90;;;;;;4973790;28;20165;-75
2023/05/23 07:46:51;;;;;;;41.17;36.00;;;18.30;99.90;;;;;;4973167;28;20635;-74
2023/05/23 07:49:16;;;;;;;37.90;34.00;;;18.40;99.90;;;;;;4973582;28;20252;-74
2023/05/23 07:51:42;;;;;;;38.10;34.20;;;18.50;99.90;;;;;;4973810;28;20177;-74
2023/05/23 07:54:08;;;;;;;40.27;36.00;;;18.30;99.90;;;;;;4974137;28;20189;-75
2023/05/23 07:56:33;;;;;;;43.80;39.20;;;18.20;99.90;;;;;;4974800;28;20176;-75
2023/05/23 07:58:59;;;;;;;40.40;36.30;;;17.90;99.90;;;;;;4963246;28;20265;-74
2023/05/23 08:01:25;;;;;;;38.13;34.33;;;17.90;99.90;;;;;;4965357;28;20565;-75
2023/05/23 08:03:50;;;;;;;37.13;33.33;;;17.90;99.90;;;;;;4976146;28;20439;-75
2023/05/23 08:06:16;;;;;;;35.23;31.03;;;18.20;99.90;;;;;;4974572;28;20205;-75
2023/05/23 08:08:42;;;;;;;31.17;28.03;;;18.20;99.90;;;;;;4957628;28;20178;-74
2023/05/23 08:11:08;;;;;;;30.77;27.67;;;18.30;99.90;;;;;;4958153;29;20644;-73
2023/05/23 08:13:34;;;;;;;31.00;28.10;;;18.30;99.90;;;;;;4940122;29;20534;-73
2023/05/23 08:16:00;;;;;;;31.27;28.30;;;18.20;99.90;;;;;;4957178;29;20170;-73
2023/05/23 08:18:25;;;;;;;32.10;27.37;;;18.20;99.90;;;;;;4957428;29;20925;-73
2023/05/23 08:20:51;;;;;;;30.73;27.57;;;18.20;99.90;;;;;;4957192;29;20664;-73
2023/05/23 08:23:16;;;;;;;29.20;26.47;;;18.10;99.90;;;;;;4957244;28;20197;-73
2023/05/23 08:25:42;;;;;;;29.40;26.03;;;18.10;99.90;;;;;;4957173;29;20305;-73
2023/05/23 08:28:08;;;;;;;27.87;25.13;;;18.10;99.90;;;;;;4957129;29;20244;-73
2023/05/23 08:30:33;;;;;;;28.70;25.60;;;18.10;99.90;;;;;;4957776;28;20201;-73
2023/05/23 08:33:03;;;;;;;28.50;25.80;;;18.10;99.90;;;;;;4975865;28;20288;-74
2023/05/23 08:35:33;;;;;;;29.03;25.83;;;18.10;99.90;;;;;;4976527;28;20165;-74
2023/05/23 08:38:00;;;;;;;28.00;25.20;;;17.90;99.90;;;;;;4976078;28;20452;-74
2023/05/23 08:40:28;;;;;;;25.70;23.30;;;17.80;99.90;;;;;;4958792;28;20452;-74
2023/05/23 08:42:54;;;;;;;27.50;24.73;;;17.80;99.90;;;;;;4976058;28;20491;-73
2023/05/23 08:45:20;;;;;;;28.27;25.53;;;17.80;99.90;;;;;;4976260;28;20405;-73
2023/05/23 08:47:46;;;;;;;27.40;24.80;;;17.70;99.90;;;;;;4974980;28;20176;-74
2023/05/23 08:50:16;;;;;;;27.97;25.17;;;17.70;99.90;;;;;;4965841;28;20784;-73
2023/05/23 08:53:03;;;;;;;27.63;24.83;;;17.70;99.90;;;;;;4968036;28;20678;-74
2023/05/23 08:55:29;;;;;;;26.27;23.47;;;17.60;99.90;;;;;;4968238;28;20903;-73
2023/05/23 08:57:59;;;;;;;25.80;23.30;;;17.60;99.90;;;;;;4966838;28;20544;-73
2023/05/23 09:00:26;;;;;;;24.83;22.03;;;17.70;99.90;;;;;;4939234;29;20469;-73
2023/05/23 09:02:52;;;;;;;25.00;22.60;;;17.80;99.90;;;;;;4972293;28;20472;-73
2023/05/23 09:05:18;;;;;;;27.63;25.03;;;17.70;99.90;;;;;;4974895;28;20405;-73
2023/05/23 09:07:46;;;;;;;26.60;23.97;;;17.50;99.90;;;;;;4975393;28;20548;-74
2023/05/23 09:10:13;;;;;;;27.07;24.23;;;17.60;99.90;;;;;;4975766;28;20176;-74
2023/05/23 09:12:39;;;;;;;26.30;23.70;;;17.80;99.90;;;;;;4975419;28;20986;-74
2023/05/23 09:15:06;;;;;;;25.43;22.93;;;17.80;99.90;;;;;;4975608;28;20489;-73
2023/05/23 09:17:32;;;;;;;26.07;23.57;;;17.90;99.90;;;;;;4975064;28;20445;-74
2023/05/23 09:19:59;;;;;;;27.40;24.70;;;18.00;99.90;;;;;;4958021;28;20510;-74
2023/05/23 09:22:26;;;;;;;27.03;24.33;;;17.90;99.90;;;;;;4975430;28;20208;-73
2023/05/23 09:24:55;;;;;;;25.23;22.73;;;17.70;99.90;;;;;;4975634;28;20401;-73
2023/05/23 09:27:22;;;;;;;25.40;23.00;;;17.70;99.90;;;;;;4975650;28;20396;-74
2023/05/23 09:29:48;;;;;;;23.63;20.07;;;18.00;99.90;;;;;;4962314;28;20418;-74
2023/05/23 09:32:20;;;;;;;24.77;22.27;;;18.00;99.90;;;;;;4955523;28;20572;-72
2023/05/23 09:34:58;;;;;;;24.90;22.53;;;18.00;99.90;;;;;;4956014;29;20410;-75
2023/05/23 09:37:30;;;;;;;24.50;20.50;;;18.20;99.90;;;;;;4956331;29;20444;-74
2023/05/23 09:39:56;;;;;;;22.67;20.43;;;18.40;99.90;;;;;;4956135;29;20390;-74
2023/05/23 09:42:22;;;;;;;22.30;19.90;;;18.40;99.90;;;;;;4956017;28;20434;-74
2023/05/23 09:44:49;;;;;;;21.67;19.53;;;18.30;99.90;;;;;;4938747;29;20488;-74
2023/05/23 09:47:17;;;;;;;22.10;19.67;;;18.40;99.90;;;;;;4955595;29;20221;-74
2023/05/23 09:49:43;;;;;;;22.10;19.87;;;18.30;99.90;;;;;;4956312;29;20420;-75
2023/05/23 09:52:09;;;;;;;24.50;20.10;;;18.50;99.90;;;;;;4956051;28;20445;-74
2023/05/23 09:54:34;;;;;;;20.30;18.30;;;18.50;99.90;;;;;;4956075;29;20410;-73
2023/05/23 09:57:01;;;;;;;20.73;18.63;;;18.50;99.90;;;;;;4955961;29;20189;-71
2023/05/23 09:59:30;;;;;;;19.77;17.67;;;18.70;99.90;;;;;;4955855;29;20256;-72
2023/05/23 10:01:56;;;;;;;21.73;19.53;;;18.70;99.90;;;;;;4968096;28;20425;-73
2023/05/23 10:04:25;;;;;;;17.23;15.63;;;18.50;99.90;;;;;;4972818;28;20417;-74
2023/05/23 10:07:00;;;;;;;19.07;17.27;;;18.30;99.90;;;;;;4962891;28;20405;-74
2023/05/23 10:09:31;;;;;;;17.60;15.90;;;18.30;99.90;;;;;;4958068;28;20413;-74
2023/05/23 10:12:18;;;;;;;19.27;17.27;;;18.50;99.90;;;;;;4955459;28;20395;-74
2023/05/23 10:14:48;;;;;;;17.60;15.90;;;18.70;99.90;;;;;;4955071;29;20745;-74
2023/05/23 10:17:36;;;;;;;17.17;15.50;;;18.80;99.90;;;;;;4962675;28;20500;-72
2023/05/23 10:20:07;;;;;;;16.23;14.83;;;19.10;99.90;;;;;;4956898;28;20444;-74
2023/05/23 10:22:36;;;;;;;17.17;15.57;;;19.30;99.90;;;;;;4974350;28;20424;-74
2023/05/23 10:25:04;;;;;;;17.37;15.73;;;19.40;99.90;;;;;;4957023;28;20409;-74
2023/05/23 10:27:30;;;;;;;18.37;16.57;;;19.60;99.90;;;;;;4957064;28;20923;-74
2023/05/23 10:29:57;;;;;;;16.37;14.63;;;19.80;99.90;;;;;;4974570;28;20393;-75
2023/05/23 10:32:58;;;;;;;16.83;14.87;;;19.70;99.90;;;;;;4981418;23;20461;-71
2023/05/23 10:35:48;;;;;;;17.43;14.10;;;20.10;99.90;;;;;;4954284;29;20406;-72
2023/05/23 10:38:34;;;;;;;15.23;13.63;;;20.10;99.90;;;;;;4954440;29;20551;-72
2023/05/23 10:41:12;;;;;;;14.80;12.13;;;20.30;99.90;;;;;;4954427;29;20477;-73
2023/05/23 10:43:52;;;;;;;13.40;12.30;;;20.90;99.90;;;;;;4954619;28;20418;-73
2023/05/23 10:46:21;;;;;;;13.57;12.17;;;21.00;99.90;;;;;;4953712;29;20505;-73
2023/05/23 10:48:47;;;;;;;12.87;11.67;;;21.10;99.90;;;;;;4937992;29;20441;-73
2023/05/23 10:51:14;;;;;;;13.37;12.17;;;20.80;99.90;;;;;;4935747;29;20486;-73
2023/05/23 10:53:42;;;;;;;13.80;12.40;;;21.00;99.90;;;;;;4935591;29;20197;-72
2023/05/23 10:56:10;;;;;;;14.50;13.00;;;20.50;99.90;;;;;;4940885;29;20744;-73
2023/05/23 10:58:38;;;;;;;13.10;11.80;;;20.20;99.90;;;;;;4945972;29;20489;-73
2023/05/23 11:01:05;;;;;;;12.93;11.70;;;20.40;99.90;;;;;;4945510;29;20842;-74
2023/05/23 11:03:45;;;;;;;14.20;12.90;;;20.30;99.90;;;;;;4943528;29;20464;-73
2023/05/23 11:06:31;;;;;;;14.00;12.50;;;20.30;99.90;;;;;;4940167;29;20413;-73
2023/05/23 11:09:05;;;;;;;13.40;12.30;;;20.30;99.90;;;;;;4953078;29;20405;-73
2023/05/23 11:12:07;;;;;;;13.20;12.00;;;20.40;99.90;;;;;;4954614;29;20765;-73
2023/05/23 11:14:52;;;;;;;12.50;11.20;;;20.40;99.90;;;;;;4938134;29;20402;-73
2023/05/23 11:17:28;;;;;;;12.20;11.13;;;20.20;99.90;;;;;;4934837;29;20402;-73
2023/05/23 11:20:01;;;;;;;13.00;11.80;;;20.20;99.90;;;;;;4935781;29;20395;-72
2023/05/23 11:22:28;;;;;;;12.43;11.23;;;20.20;99.90;;;;;;4935331;29;20415;-72
2023/05/23 11:24:55;;;;;;;12.53;11.33;;;19.90;99.90;;;;;;4935647;29;20426;-73
2023/05/23 11:27:30;;;;;;;11.50;10.40;;;20.10;99.90;;;;;;4917941;29;20421;-72
2023/05/23 11:29:58;;;;;;;11.37;10.27;;;20.20;99.90;;;;;;4936740;29;20453;-72
2023/05/23 11:32:26;;;;;;;12.20;11.07;;;20.20;99.90;;;;;;4951654;28;20476;-73
2023/05/23 11:34:51;;;;;;;11.80;10.70;;;20.30;99.90;;;;;;4940578;29;20983;-72
2023/05/23 11:37:18;;;;;;;10.80;9.80;;;20.60;99.90;;;;;;4957638;29;20402;-72
2023/05/23 11:39:43;;;;;;;13.73;11.50;;;20.70;99.90;;;;;;4957909;29;20201;-72
2023/05/23 11:42:09;;;;;;;12.20;11.10;;;20.70;99.90;;;;;;4957528;28;20409;-72
2023/05/23 11:44:34;;;;;;;13.50;12.20;;;20.80;99.90;;;;;;4957796;29;20269;-73
2023/05/23 11:47:05;;;;;;;13.13;11.93;;;20.40;99.90;;;;;;4957625;29;20170;-73
2023/05/23 11:49:34;;;;;;;12.80;11.50;;;20.40;99.90;;;;;;4958104;29;20556;-73
2023/05/23 11:52:01;;;;;;;13.43;12.13;;;20.40;99.90;;;;;;4957890;29;20421;-73
2023/05/23 11:54:27;;;;;;;13.83;12.50;;;20.30;99.90;;;;;;4958131;28;20422;-72
2023/05/23 11:56:54;;;;;;;11.67;10.53;;;20.30;99.90;;;;;;4957513;29;20488;-72
2023/05/23 11:59:21;;;;;;;12.27;11.23;;;20.60;99.90;;;;;;4957661;29;20548;-73
2023/05/23 12:01:47;;;;;;;12.67;11.60;;;20.80;99.90;;;;;;4957190;29;20453;-73
2023/05/23 12:04:13;;;;;;;12.80;11.60;;;21.20;99.90;;;;;;4957464;28;20457;-73
2023/05/23 12:06:42;;;;;;;12.03;10.93;;;21.70;99.90;;;;;;4957530;29;20169;-73
2023/05/23 12:09:11;;;;;;;12.10;11.07;;;22.00;99.90;;;;;;4957166;29;20167;-73
2023/05/23 12:11:38;;;;;;;11.97;10.77;;;21.90;99.90;;;;;;4940064;29;20410;-73
2023/05/23 12:14:05;;;;;;;11.40;10.30;;;22.20;99.90;;;;;;4957219;28;20445;-74
2023/05/23 12:16:35;;;;;;;12.13;11.03;;;22.40;99.90;;;;;;4956943;29;20468;-74
2023/05/23 12:19:02;;;;;;;10.93;9.97;;;22.10;99.90;;;;;;4956749;29;20445;-73
2023/05/23 12:21:45;;;;;;;12.53;11.33;;;21.80;99.90;;;;;;4956956;29;20777;-74
2023/05/23 12:24:21;;;;;;;9.30;8.50;;;22.20;99.90;;;;;;4939417;29;20436;-73
2023/05/23 12:26:56;;;;;;;9.90;9.10;;;22.50;99.90;;;;;;4955456;29;20428;-74
2023/05/23 12:29:31;;;;;;;9.30;8.40;;;22.50;99.90;;;;;;4956883;29;20756;-74
2023/05/23 12:32:01;;;;;;;8.33;7.63;;;23.70;99.90;;;;;;4957201;29;20488;-74